Time;durP1;ratioP1;P1;durP2;ratioP2;P2;SDS_P1;SDS_P2;PMS_P1;PMS_P2;Temp;Humidity;BMP_temperature;BMP_pressure;BME280_temperature;BME280_humidity;BME280_pressure;Samples;Min_cycle;Max_cycle;Signal;HPM_P1;HPM_P2
2023/11/14 00:02:49;;;;;;;15.82;2.08;;;;;;;10.62;100.00;99438.94;6229025;28;20069;-77
2023/11/14 00:05:50;;;;;;;19.13;2.53;;;;;;;10.63;100.00;99430.13;6229371;28;20053;-76
2023/11/14 00:08:51;;;;;;;10.98;2.42;;;;;;;10.67;100.00;99428.06;6228994;28;20057;-77
2023/11/14 00:11:53;;;;;;;28.45;3.03;;;;;;;10.69;100.00;99425.34;6229099;28;20045;-77
2023/11/14 00:14:56;;;;;;;15.07;2.33;;;;;;;10.79;100.00;99421.06;6228986;28;20068;-76
2023/11/14 00:17:59;;;;;;;19.83;1.88;;;;;;;10.71;100.00;99426.91;6227996;28;20184;-77
2023/11/14 00:21:01;;;;;;;13.95;2.58;;;;;;;10.70;100.00;99427.03;6228836;28;20462;-77
2023/11/14 00:24:02;;;;;;;20.83;2.40;;;;;;;10.84;100.00;99419.75;6228384;28;20050;-77
2023/11/14 00:27:04;;;;;;;15.18;2.75;;;;;;;10.80;100.00;99420.94;6228694;28;20050;-77
2023/11/14 00:30:09;;;;;;;14.98;1.88;;;;;;;10.73;100.00;99417.13;6228350;28;20054;-76
2023/11/14 00:33:10;;;;;;;17.38;2.20;;;;;;;10.81;100.00;99409.50;6228632;28;20056;-77
2023/11/14 00:36:12;;;;;;;14.38;2.28;;;;;;;10.82;100.00;99412.97;6228550;28;20042;-76
2023/11/14 00:39:16;;;;;;;18.98;2.40;;;;;;;10.99;100.00;99401.16;6228405;28;20362;-78
2023/11/14 00:42:18;;;;;;;28.90;2.85;;;;;;;11.03;100.00;99392.06;6228160;28;20134;-79
2023/11/14 00:45:20;;;;;;;13.98;2.10;;;;;;;11.00;100.00;99405.47;6228450;28;20053;-80
2023/11/14 00:48:22;;;;;;;22.50;1.98;;;;;;;10.99;100.00;99393.25;6228058;28;20050;-79
2023/11/14 00:51:23;;;;;;;19.42;2.25;;;;;;;11.07;100.00;99396.16;6228338;28;20046;-77
2023/11/14 00:54:25;;;;;;;20.17;2.63;;;;;;;10.99;100.00;99380.97;6228048;28;20049;-78
2023/11/14 00:57:26;;;;;;;17.83;2.13;;;;;;;10.99;100.00;99428.31;6228269;28;20131;-79
2023/11/14 01:00:29;;;;;;;13.05;2.75;;;;;;;11.12;100.00;99383.47;6227915;28;20050;-76
2023/11/14 01:03:30;;;;;;;10.90;2.00;;;;;;;11.15;100.00;99399.03;6227750;28;20327;-79
2023/11/14 01:06:32;;;;;;;9.57;1.75;;;;;;;11.07;100.00;99393.50;6235240;28;20050;-79
2023/11/14 01:09:33;;;;;;;17.00;2.45;;;;;;;11.13;100.00;99408.84;6223553;28;20053;-77
2023/11/14 01:12:34;;;;;;;17.77;2.42;;;;;;;11.15;100.00;99407.75;6227634;28;20212;-76
2023/11/14 01:15:37;;;;;;;24.52;2.83;;;;;;;11.14;100.00;99392.09;6227485;28;20050;-78
2023/11/14 01:18:40;;;;;;;16.70;2.10;;;;;;;11.18;100.00;99381.22;6229940;28;20046;-78
2023/11/14 01:21:41;;;;;;;18.10;2.42;;;;;;;11.12;100.00;99397.47;6222929;28;20045;-78
2023/11/14 01:24:43;;;;;;;17.73;3.17;;;;;;;11.04;100.00;99388.50;6227625;28;20137;-79
2023/11/14 01:27:46;;;;;;;10.80;2.40;;;;;;;11.06;100.00;99397.94;6227178;28;20050;-78
2023/11/14 01:30:49;;;;;;;22.73;3.67;;;;;;;11.11;100.00;99394.97;6227213;28;20104;-77
2023/11/14 01:33:50;;;;;;;14.20;2.53;;;;;;;11.04;100.00;99399.88;6234351;28;20046;-79
2023/11/14 01:36:55;;;;;;;21.38;3.25;;;;;;;11.18;100.00;99388.28;6218776;28;20046;-78
2023/11/14 01:39:56;;;;;;;17.65;2.30;;;;;;;11.11;100.00;99382.66;6227274;28;20056;-78
2023/11/14 01:43:02;;;;;;;11.88;2.17;;;;;;;11.13;100.00;99398.31;6226896;28;20358;-79
2023/11/14 01:46:05;;;;;;;12.38;2.10;;;;;;;11.12;100.00;99386.09;6227028;28;20049;-79
2023/11/14 01:49:06;;;;;;;19.27;3.90;;;;;;;11.06;100.00;99386.59;6256550;22;20046;-77
2023/11/14 01:52:08;;;;;;;7.00;1.60;;;;;;;11.11;100.00;99398.41;6226185;28;20061;-76
2023/11/14 01:55:10;;;;;;;9.25;1.92;;;;;;;11.11;100.00;99406.31;6232918;28;20068;-78
2023/11/14 01:58:11;;;;;;;29.17;2.97;;;;;;;11.16;100.00;99393.63;6226833;28;20049;-77
2023/11/14 02:01:15;;;;;;;22.55;2.08;;;;;;;11.10;100.00;99398.56;6226490;28;20073;-76
2023/11/14 02:04:22;;;;;;;15.18;2.67;;;;;;;11.15;100.00;99420.91;6226714;28;20053;-78
2023/11/14 02:07:24;;;;;;;21.55;2.83;;;;;;;11.18;100.00;99393.53;6226330;28;20046;-78
2023/11/14 02:10:25;;;;;;;25.55;2.80;;;;;;;11.30;100.00;99405.72;6226358;28;20438;-76
2023/11/14 02:13:27;;;;;;;15.40;2.40;;;;;;;11.39;100.00;99417.31;6226360;28;20054;-77
2023/11/14 02:16:48;;;;;;;23.77;2.10;;;;;;;11.45;100.00;99416.03;6239464;28;20049;-76
2023/11/14 02:19:50;;;;;;;15.60;2.70;;;;;;;11.38;100.00;99410.38;6250777;28;20056;-77
2023/11/14 02:22:52;;;;;;;11.32;1.48;;;;;;;11.30;100.00;99423.28;6250849;28;20053;-77
2023/11/14 02:25:56;;;;;;;15.63;3.83;;;;;;;11.29;100.00;99437.41;6250741;28;20053;-77
2023/11/14 02:28:58;;;;;;;20.02;2.60;;;;;;;11.21;100.00;99435.34;6250557;28;20045;-77
2023/11/14 02:32:00;;;;;;;14.65;2.05;;;;;;;11.24;100.00;99421.16;6250602;28;20053;-76
2023/11/14 02:35:02;;;;;;;20.92;2.45;;;;;;;11.22;100.00;99416.03;6250658;28;20088;-76
2023/11/14 02:38:03;;;;;;;15.95;1.50;;;;;;;11.21;100.00;99421.38;6250400;28;20045;-79
2023/11/14 02:41:06;;;;;;;15.25;2.33;;;;;;;11.20;100.00;99419.72;6249828;28;20049;-76
2023/11/14 02:44:07;;;;;;;13.18;2.33;;;;;;;11.21;100.00;99419.56;6250498;28;20054;-76
2023/11/14 02:47:09;;;;;;;18.75;3.28;;;;;;;11.13;100.00;99428.06;6250387;28;20076;-76
2023/11/14 02:50:20;;;;;;;14.50;1.85;;;;;;;11.18;100.00;99430.34;6250278;28;20053;-76
2023/11/14 02:53:23;;;;;;;16.40;2.92;;;;;;;11.13;100.00;99446.47;6250316;28;20176;-76
2023/11/14 02:56:26;;;;;;;18.65;4.00;;;;;;;11.17;100.00;99413.75;6250585;28;20061;-76
2023/11/14 02:59:27;;;;;;;14.07;2.40;;;;;;;10.85;100.00;99425.84;6250281;28;20060;-77
2023/11/14 03:02:28;;;;;;;13.00;3.15;;;;;;;10.85;100.00;99403.03;6250066;28;20457;-76
2023/11/14 03:05:30;;;;;;;15.57;2.85;;;;;;;10.74;100.00;99404.81;6250374;28;20045;-77
2023/11/14 03:08:31;;;;;;;13.85;2.03;;;;;;;10.67;100.00;99425.44;6244176;28;20049;-75
2023/11/14 03:11:34;;;;;;;18.15;3.28;;;;;;;10.63;100.00;99439.78;6241865;28;20058;-77
2023/11/14 03:14:38;;;;;;;12.85;3.22;;;;;;;10.65;100.00;99440.50;6250059;28;20059;-76
2023/11/14 03:17:39;;;;;;;14.95;1.80;;;;;;;10.71;100.00;99453.16;6250234;28;20050;-76
2023/11/14 03:20:41;;;;;;;22.13;3.13;;;;;;;10.71;100.00;99447.09;6250018;28;20065;-76
2023/11/14 03:23:42;;;;;;;16.20;2.67;;;;;;;10.83;100.00;99459.31;6250149;28;20064;-76
2023/11/14 03:26:45;;;;;;;22.27;2.83;;;;;;;10.79;100.00;99447.34;6249930;28;20100;-76
2023/11/14 03:29:46;;;;;;;13.73;1.85;;;;;;;10.82;100.00;99440.09;6250113;28;20045;-77
2023/11/14 03:32:48;;;;;;;25.80;3.22;;;;;;;10.92;100.00;99442.84;6249092;28;20049;-77
2023/11/14 03:35:49;;;;;;;15.48;2.60;;;;;;;10.84;100.00;99437.31;6249804;28;20350;-76
2023/11/14 03:38:51;;;;;;;9.38;1.73;;;;;;;10.79;100.00;99453.44;6241526;28;20053;-76
2023/11/14 03:41:55;;;;;;;13.82;1.85;;;;;;;10.83;100.00;99446.16;6249639;28;20140;-76
2023/11/14 03:44:56;;;;;;;12.00;1.83;;;;;;;10.84;100.00;99437.31;6249676;28;20060;-77
2023/11/14 03:47:57;;;;;;;14.98;2.03;;;;;;;10.87;100.00;99443.19;6249889;28;20449;-77
2023/11/14 03:50:59;;;;;;;12.82;1.88;;;;;;;10.89;100.00;99445.69;6249635;28;20362;-77
2023/11/14 03:54:00;;;;;;;17.05;2.58;;;;;;;10.90;100.00;99445.59;6254338;28;20049;-77
2023/11/14 03:57:03;;;;;;;23.15;2.58;;;;;;;10.82;100.00;99452.38;6254137;28;20053;-76
2023/11/14 04:00:09;;;;;;;13.40;1.60;;;;;;;10.65;100.00;99451.00;6253752;28;20053;-77
2023/11/14 04:03:10;;;;;;;14.45;1.85;;;;;;;10.66;100.00;99460.56;6253937;28;20064;-76
2023/11/14 04:06:12;;;;;;;9.60;1.40;;;;;;;10.71;100.00;99474.19;6253882;28;20045;-75
2023/11/14 04:09:14;;;;;;;15.55;2.53;;;;;;;10.71;100.00;99466.31;6253659;28;20060;-78
2023/11/14 04:12:16;;;;;;;15.20;2.85;;;;;;;10.61;100.00;99467.94;6253667;28;20049;-76
2023/11/14 04:15:18;;;;;;;16.27;2.15;;;;;;;10.59;100.00;99456.72;6253627;28;20049;-75
2023/11/14 04:18:19;;;;;;;17.58;2.25;;;;;;;10.58;100.00;99452.41;6253786;28;20048;-76
2023/11/14 04:21:21;;;;;;;18.48;3.65;;;;;;;10.63;100.00;99463.44;6253574;28;20053;-76
2023/11/14 04:24:23;;;;;;;12.50;2.65;;;;;;;10.64;100.00;99473.00;6231519;28;20054;-76
2023/11/14 04:27:25;;;;;;;16.30;2.53;;;;;;;10.66;100.00;99463.19;6221661;28;20057;-76
2023/11/14 04:30:27;;;;;;;19.75;2.92;;;;;;;10.63;100.00;99466.91;6228441;28;20461;-77
2023/11/14 04:33:28;;;;;;;12.07;2.63;;;;;;;10.61;100.00;99471.41;6228645;28;20053;-74
2023/11/14 04:36:30;;;;;;;11.63;2.17;;;;;;;10.65;100.00;99477.28;6228281;28;20381;-73
2023/11/14 04:39:31;;;;;;;12.75;1.55;;;;;;;10.61;100.00;99471.41;6228556;28;20049;-74
2023/11/14 04:42:34;;;;;;;11.20;1.80;;;;;;;10.60;100.00;99463.66;6214783;28;20053;-77
2023/11/14 04:45:36;;;;;;;8.43;1.70;;;;;;;10.57;100.00;99469.97;6213875;28;20046;-74
2023/11/14 04:48:37;;;;;;;10.35;1.58;;;;;;;10.58;100.00;99487.41;6215905;28;20427;-78
2023/11/14 04:51:38;;;;;;;11.23;2.97;;;;;;;10.57;100.00;99487.50;6228094;28;20050;-76
2023/11/14 04:54:40;;;;;;;15.13;1.92;;;;;;;10.68;100.00;99497.25;6228591;28;20346;-76
2023/11/14 04:57:43;;;;;;;19.50;3.08;;;;;;;10.72;100.00;99489.03;6228006;28;20046;-75
2023/11/14 05:00:44;;;;;;;13.35;2.15;;;;;;;10.74;100.00;99479.22;6227971;28;20045;-75
2023/11/14 05:03:45;;;;;;;17.83;2.45;;;;;;;10.77;100.00;99499.19;6227086;28;20049;-75
2023/11/14 05:06:47;;;;;;;13.05;2.05;;;;;;;10.74;100.00;99478.41;6227575;28;20452;-76
2023/11/14 05:09:48;;;;;;;18.60;2.25;;;;;;;10.79;100.00;99476.25;6228367;28;20057;-76
2023/11/14 05:12:51;;;;;;;19.05;2.88;;;;;;;10.83;100.00;99496.94;6223587;28;20188;-77
2023/11/14 05:15:52;;;;;;;13.02;2.58;;;;;;;10.83;100.00;99488.22;6230871;28;20481;-74
2023/11/14 05:18:54;;;;;;;12.20;2.15;;;;;;;10.80;100.00;99477.94;6219407;28;20038;-77
2023/11/14 05:21:56;;;;;;;11.10;1.70;;;;;;;10.88;100.00;99504.47;6214923;28;20152;-77
2023/11/14 05:24:58;;;;;;;11.50;1.33;;;;;;;10.95;100.00;99471.53;6223579;28;20054;-77
2023/11/14 05:28:00;;;;;;;11.10;2.40;;;;;;;10.97;100.00;99476.66;6248238;28;20045;-77
2023/11/14 05:31:02;;;;;;;9.52;2.40;;;;;;;11.01;100.00;99481.59;6251572;28;20049;-72
2023/11/14 05:34:04;;;;;;;8.40;1.40;;;;;;;11.01;100.00;99457.91;6251698;28;20056;-77
2023/11/14 05:37:07;;;;;;;12.25;1.70;;;;;;;10.98;100.00;99457.31;6251162;28;20045;-76
2023/11/14 05:40:10;;;;;;;16.13;1.63;;;;;;;10.84;100.00;99461.81;6251221;28;20463;-77
2023/11/14 05:43:13;;;;;;;12.45;1.77;;;;;;;10.78;100.00;99451.78;6251292;28;20049;-77
2023/11/14 05:46:14;;;;;;;9.93;1.55;;;;;;;10.74;100.00;99452.94;6251679;28;20057;-76
2023/11/14 05:49:16;;;;;;;13.82;1.73;;;;;;;10.73;100.00;99456.53;6251013;28;20353;-76
2023/11/14 05:52:18;;;;;;;7.80;1.95;;;;;;;10.73;100.00;99460.97;6251332;28;20136;-77
2023/11/14 05:55:19;;;;;;;6.93;1.00;;;;;;;10.71;100.00;99473.34;6251273;28;20049;-79
2023/11/14 05:58:22;;;;;;;14.43;1.67;;;;;;;10.66;100.00;99469.28;6251389;28;20049;-77
2023/11/14 06:01:24;;;;;;;6.40;1.10;;;;;;;10.74;100.00;99468.72;6251145;28;20053;-79
2023/11/14 06:04:25;;;;;;;18.08;1.95;;;;;;;10.72;100.00;99475.88;6250845;28;20053;-77
2023/11/14 06:07:26;;;;;;;13.18;1.80;;;;;;;10.71;100.00;99484.69;6250669;28;20434;-77
2023/11/14 06:10:28;;;;;;;13.65;1.65;;;;;;;10.82;100.00;99471.63;6250706;28;20053;-77
2023/11/14 06:13:30;;;;;;;13.70;1.58;;;;;;;10.86;100.00;99472.22;6250905;28;20049;-77
2023/11/14 06:16:32;;;;;;;7.32;1.20;;;;;;;10.86;100.00;99474.84;6249606;28;20053;-77
2023/11/14 06:19:36;;;;;;;9.60;2.00;;;;;;;10.92;100.00;99483.09;6250821;28;20061;-77
2023/11/14 06:22:37;;;;;;;25.58;3.10;;;;;;;10.93;100.00;99491.81;6250482;28;20050;-76
2023/11/14 06:25:39;;;;;;;11.82;1.63;;;;;;;10.96;100.00;99496.88;6250880;28;20052;-77
2023/11/14 06:28:42;;;;;;;11.45;1.85;;;;;;;10.94;100.00;99509.28;6250435;28;20056;-76
2023/11/14 06:31:43;;;;;;;23.40;2.60;;;;;;;10.91;100.00;99499.00;6250617;28;20072;-77
2023/11/14 06:34:45;;;;;;;15.00;1.88;;;;;;;11.11;100.00;99505.38;6250651;28;20053;-77
2023/11/14 06:37:46;;;;;;;14.75;2.03;;;;;;;11.12;100.00;99493.91;6250195;28;20057;-78
2023/11/14 06:40:47;;;;;;;22.92;3.83;;;;;;;11.13;100.00;99514.00;6250309;28;20370;-77
2023/11/14 06:43:50;;;;;;;18.83;2.50;;;;;;;11.18;100.00;99507.44;6250159;28;20053;-77
2023/11/14 06:46:52;;;;;;;16.20;2.35;;;;;;;11.21;100.00;99503.72;6223351;28;20042;-76
2023/11/14 06:49:54;;;;;;;17.65;2.38;;;;;;;11.17;100.00;99515.44;6212600;28;20046;-76
2023/11/14 06:52:56;;;;;;;6.28;1.15;;;;;;;11.20;100.00;99522.25;6213594;28;20046;-77
2023/11/14 06:55:58;;;;;;;10.65;2.63;;;;;;;11.11;100.00;99510.66;6212398;28;20061;-76
2023/11/14 06:59:01;;;;;;;18.30;2.85;;;;;;;11.10;100.00;99511.59;6214225;28;20042;-81
2023/11/14 07:02:05;;;;;;;15.63;3.65;;;;;;;11.18;100.00;99525.00;6214140;28;20042;-74
2023/11/14 07:05:09;;;;;;;15.05;2.10;;;;;;;11.11;100.00;99529.88;6216982;28;20129;-75
2023/11/14 07:08:11;;;;;;;21.13;1.95;;;;;;;11.17;100.00;99534.69;6221924;28;20454;-75
2023/11/14 07:11:12;;;;;;;18.90;1.92;;;;;;;11.21;100.00;99544.97;6221432;28;20050;-72
2023/11/14 07:14:19;;;;;;;18.65;2.92;;;;;;;11.32;100.00;99545.00;6218671;28;20061;-73
2023/11/14 07:17:21;;;;;;;14.95;2.40;;;;;;;11.24;100.00;99553.47;6215109;28;20058;-75
2023/11/14 07:20:23;;;;;;;12.60;2.53;;;;;;;11.34;100.00;99550.97;6221451;28;20050;-77
2023/11/14 07:23:25;;;;;;;15.45;1.95;;;;;;;11.35;100.00;99542.13;6213739;28;20505;-76
2023/11/14 07:26:26;;;;;;;14.63;2.38;;;;;;;11.41;100.00;99545.16;6223728;28;20054;-77
2023/11/14 07:29:30;;;;;;;14.40;3.05;;;;;;;11.41;100.00;99560.09;6230024;28;20046;-78
2023/11/14 07:32:31;;;;;;;19.27;2.75;;;;;;;11.39;100.00;99559.34;6229801;28;20050;-76
2023/11/14 07:35:37;;;;;;;25.42;3.92;;;;;;;11.40;100.00;99567.16;6239821;28;20050;-76
2023/11/14 07:38:38;;;;;;;14.45;3.08;;;;;;;11.46;100.00;99567.63;6254366;28;20053;-76
2023/11/14 07:41:40;;;;;;;23.75;2.10;;;;;;;11.54;100.00;99578.44;6246293;28;20438;-78
2023/11/14 07:44:43;;;;;;;26.02;2.88;;;;;;;11.55;100.00;99583.56;6215891;28;20335;-76
2023/11/14 07:47:44;;;;;;;20.83;2.13;;;;;;;11.56;100.00;99579.97;6218386;28;20056;-78
2023/11/14 07:50:46;;;;;;;5.32;1.58;;;;;;;11.54;100.00;99586.31;6215674;28;20342;-77
2023/11/14 07:53:48;;;;;;;19.65;2.60;;;;;;;11.52;100.00;99593.47;6217703;28;20065;-77
2023/11/14 07:56:50;;;;;;;16.60;2.38;;;;;;;11.58;100.00;99593.88;6216256;28;20431;-74
2023/11/14 07:59:52;;;;;;;15.02;2.20;;;;;;;11.63;100.00;99596.16;6217248;28;20062;-76
2023/11/14 08:02:54;;;;;;;17.83;2.03;;;;;;;11.72;100.00;99600.72;6216363;28;20050;-78
2023/11/14 08:05:55;;;;;;;13.68;1.90;;;;;;;11.72;100.00;99597.22;6216310;28;20057;-74
2023/11/14 08:08:57;;;;;;;14.05;2.60;;;;;;;11.62;100.00;99595.28;6227857;28;20366;-77
2023/11/14 08:11:58;;;;;;;11.57;1.80;;;;;;;11.66;100.00;99594.09;6229093;28;20054;-77
2023/11/14 08:15:01;;;;;;;10.50;2.53;;;;;;;11.67;100.00;99598.44;6237088;28;20445;-77
2023/11/14 08:18:03;;;;;;;22.20;2.67;;;;;;;11.76;100.00;99603.91;6229613;28;20076;-77
2023/11/14 08:21:05;;;;;;;13.80;2.72;;;;;;;11.68;100.00;99601.88;6228403;28;20046;-77
2023/11/14 08:24:07;;;;;;;12.30;3.17;;;;;;;11.70;100.00;99626.28;6224993;28;20362;-75
2023/11/14 08:27:09;;;;;;;16.95;1.75;;;;;;;11.68;100.00;99612.41;6232326;28;20049;-75
2023/11/14 08:30:13;;;;;;;16.65;2.15;;;;;;;11.69;100.00;99619.34;6242969;28;20077;-75
2023/11/14 08:33:16;;;;;;;12.48;1.77;;;;;;;11.57;100.00;99612.38;6240225;28;20069;-76
2023/11/14 08:36:17;;;;;;;17.77;2.80;;;;;;;11.58;100.00;99624.56;6239932;28;20054;-73
2023/11/14 08:39:19;;;;;;;13.48;2.20;;;;;;;11.51;100.00;99639.16;6239431;28;20049;-80
2023/11/14 08:42:20;;;;;;;12.85;2.00;;;;;;;11.43;100.00;99630.03;6244780;28;20060;-80
2023/11/14 08:45:24;;;;;;;18.48;2.28;;;;;;;11.44;100.00;99638.75;6252743;28;20055;-74
2023/11/14 08:48:26;;;;;;;17.77;2.72;;;;;;;11.42;100.00;99648.56;6252521;28;20088;-75
2023/11/14 08:51:27;;;;;;;23.25;1.92;;;;;;;11.40;100.00;99655.75;6235250;28;20056;-77
2023/11/14 08:54:28;;;;;;;15.40;1.90;;;;;;;11.27;100.00;99647.09;6228027;28;20054;-78
2023/11/14 08:57:30;;;;;;;19.70;3.78;;;;;;;11.24;100.00;99642.88;6226830;28;20127;-76
2023/11/14 09:00:33;;;;;;;15.70;2.47;;;;;;;11.22;100.00;99644.81;6233621;28;20465;-75
2023/11/14 09:03:34;;;;;;;21.55;3.88;;;;;;;11.10;100.00;99643.06;6239462;28;20068;-76
2023/11/14 09:06:36;;;;;;;14.23;2.28;;;;;;;11.14;100.00;99644.53;6236929;28;20442;-74
2023/11/14 09:09:38;;;;;;;17.15;2.63;;;;;;;11.00;100.00;99656.03;6243686;28;20139;-74
2023/11/14 09:12:40;;;;;;;19.40;2.67;;;;;;;10.95;100.00;99646.81;6251945;28;20345;-75
2023/11/14 09:15:43;;;;;;;15.68;2.10;;;;;;;10.90;100.00;99660.28;6230469;28;20056;-75
2023/11/14 09:18:45;;;;;;;14.60;2.63;;;;;;;10.89;100.00;99661.22;6230488;28;20048;-73
2023/11/14 09:21:47;;;;;;;18.58;3.45;;;;;;;10.89;100.00;99669.09;6243501;28;20056;-74
2023/11/14 09:24:48;;;;;;;12.70;2.58;;;;;;;10.89;100.00;99666.47;6252063;28;20127;-74
2023/11/14 09:27:50;;;;;;;23.65;3.53;;;;;;;10.99;100.00;99664.03;6229675;28;20180;-74
2023/11/14 09:30:52;;;;;;;28.33;2.78;;;;;;;10.97;100.00;99666.78;6221493;28;20339;-75
2023/11/14 09:33:54;;;;;;;5.53;1.75;;;;;;;10.97;100.00;99677.28;6239419;28;20053;-74
2023/11/14 09:36:55;;;;;;;11.07;1.58;;;;;;;11.06;100.00;99686.31;6246897;28;20049;-79
2023/11/14 09:39:57;;;;;;;22.05;3.55;;;;;;;11.09;100.00;99675.56;6243227;28;20453;-73
2023/11/14 09:42:58;;;;;;;10.43;1.58;;;;;;;11.14;100.00;99682.16;6240517;28;20494;-73
2023/11/14 09:46:02;;;;;;;19.02;2.17;;;;;;;11.25;100.00;99675.28;6251516;28;20085;-75
2023/11/14 09:49:04;;;;;;;15.90;3.05;;;;;;;11.34;100.00;99683.34;6250835;28;20083;-75
2023/11/14 09:52:06;;;;;;;15.80;2.10;;;;;;;11.35;100.00;99684.16;6251142;28;20045;-76
2023/11/14 09:55:11;;;;;;;14.07;2.42;;;;;;;11.26;100.00;99682.22;6244035;28;20064;-77
2023/11/14 09:58:12;;;;;;;13.50;2.55;;;;;;;11.32;100.00;99676.53;6231039;28;20069;-78
2023/11/14 10:01:15;;;;;;;19.80;2.65;;;;;;;11.25;100.00;99677.91;6231489;28;20196;-74
2023/11/14 10:04:17;;;;;;;13.25;2.08;;;;;;;11.35;100.00;99684.16;6235818;28;20055;-76
2023/11/14 10:07:21;;;;;;;15.80;2.58;;;;;;;11.50;100.00;99667.25;6241605;28;20049;-75
2023/11/14 10:10:23;;;;;;;8.23;1.63;;;;;;;11.66;100.00;99678.31;6249035;28;20179;-77
2023/11/14 10:13:24;;;;;;;9.95;1.55;;;;;;;11.69;100.00;99680.72;6235003;28;20056;-77
2023/11/14 10:16:27;;;;;;;11.55;1.60;;;;;;;11.72;100.00;99676.16;6236868;28;20057;-76
2023/11/14 10:19:29;;;;;;;14.75;1.77;;;;;;;11.79;100.00;99670.34;6243260;28;20052;-77
2023/11/14 10:22:33;;;;;;;13.43;2.20;;;;;;;11.77;100.00;99674.88;6250464;28;20146;-77
2023/11/14 10:25:36;;;;;;;19.77;2.58;;;;;;;11.88;100.00;99668.84;6247204;28;20046;-75
2023/11/14 10:28:51;;;;;;;15.77;2.35;;;;;;;11.86;100.00;99684.75;6225994;28;20046;-77
2023/11/14 10:31:54;;;;;;;13.50;2.15;;;;;;;11.87;100.00;99696.13;6226056;28;20049;-77
2023/11/14 10:34:55;;;;;;;14.35;1.80;;;;;;;11.86;100.00;99679.50;6226027;28;20327;-77
2023/11/14 10:37:57;;;;;;;13.23;2.20;;;;;;;11.88;100.00;99682.00;6225707;28;20456;-77
2023/11/14 10:40:59;;;;;;;10.95;2.97;;;;;;;11.99;100.00;99676.78;6225727;28;20586;-74
2023/11/14 10:44:08;;;;;;;17.13;2.30;;;;;;;12.06;100.00;99685.84;6225983;28;20046;-77
2023/11/14 10:47:11;;;;;;;15.35;2.22;;;;;;;12.11;100.00;99683.72;6225707;28;20054;-74
2023/11/14 10:50:25;;;;;;;17.40;3.22;;;;;;;12.19;100.00;99676.06;6225626;28;20042;-77
2023/11/14 10:53:27;;;;;;;20.73;2.75;;;;;;;12.25;100.00;99671.28;6225725;28;20057;-74
2023/11/14 10:56:29;;;;;;;20.05;3.50;;;;;;;12.31;100.00;99682.19;6224541;28;20046;-76
2023/11/14 10:59:32;;;;;;;16.73;1.83;;;;;;;12.47;100.00;99678.34;6234502;28;20053;-75
2023/11/14 11:02:37;;;;;;;15.82;2.53;;;;;;;12.44;100.00;99680.28;6228850;28;20050;-75
2023/11/14 11:05:40;;;;;;;20.52;2.00;;;;;;;12.42;100.00;99660.25;6244849;28;20050;-76
2023/11/14 11:08:41;;;;;;;22.25;2.95;;;;;;;12.37;100.00;99660.63;6235972;28;20466;-75
2023/11/14 11:11:45;;;;;;;17.75;2.75;;;;;;;12.28;100.00;99678.94;6240806;28;20053;-76
2023/11/14 11:14:48;;;;;;;15.20;2.92;;;;;;;12.32;100.00;99654.88;6239122;28;20056;-76
2023/11/14 11:18:00;;;;;;;15.82;2.40;;;;;;;12.29;100.00;99670.09;6233653;28;20554;-75
2023/11/14 11:21:09;;;;;;;16.35;2.30;;;;;;;12.31;100.00;99663.75;6232922;28;20052;-74
2023/11/14 11:24:12;;;;;;;16.48;3.30;;;;;;;12.36;100.00;99658.94;6229777;28;20050;-75
2023/11/14 11:27:18;;;;;;;16.80;1.73;;;;;;;12.33;100.00;99655.72;6247185;28;20046;-74
2023/11/14 11:30:19;;;;;;;10.65;2.72;;;;;;;12.36;100.00;99656.31;6249110;28;20045;-76
2023/11/14 11:33:36;;;;;;;23.40;2.90;;;;;;;12.42;100.00;99670.81;6238344;28;20042;-75
2023/11/14 11:36:37;;;;;;;20.42;2.97;;;;;;;12.36;100.00;99668.66;6205649;28;20137;-76
2023/11/14 11:40:06;;;;;;;20.95;3.40;;;;;;;12.36;100.00;99645.78;6205411;28;20350;-74
2023/11/14 11:43:19;;;;;;;13.35;2.08;;;;;;;12.35;100.00;99651.16;6217966;28;20434;-73
2023/11/14 11:46:38;;;;;;;18.25;2.45;;;;;;;12.29;100.00;99654.28;6239062;28;20049;-76
2023/11/14 11:49:42;;;;;;;16.70;3.05;;;;;;;12.20;100.00;99655.81;6231495;28;20052;-77
2023/11/14 11:52:43;;;;;;;13.30;2.45;;;;;;;12.23;100.00;99654.75;6229633;28;20064;-76
2023/11/14 11:55:47;;;;;;;15.35;2.50;;;;;;;12.17;100.00;99663.94;6234583;28;20053;-74
2023/11/14 11:58:49;;;;;;;14.52;2.55;;;;;;;12.14;100.00;99658.94;6249034;28;20053;-74
2023/11/14 12:01:52;;;;;;;23.15;2.65;;;;;;;11.86;100.00;99647.06;6243916;28;20051;-75
2023/11/14 12:04:59;;;;;;;14.77;2.47;;;;;;;11.61;100.00;99658.56;6244958;28;20049;-76
2023/11/14 12:08:04;;;;;;;10.00;1.92;;;;;;;11.51;100.00;99660.22;6253695;28;20484;-76
2023/11/14 12:11:06;;;;;;;16.50;2.83;;;;;;;11.54;100.00;99671.34;6253461;28;20464;-73
2023/11/14 12:14:07;;;;;;;22.85;3.25;;;;;;;11.58;100.00;99667.53;6253695;28;20053;-74
2023/11/14 12:17:09;;;;;;;17.23;2.50;;;;;;;11.50;100.00;99646.22;6253505;28;20049;-76
2023/11/14 12:20:13;;;;;;;15.80;2.05;;;;;;;11.56;100.00;99656.28;6253526;28;20052;-77
2023/11/14 12:23:15;;;;;;;19.27;2.47;;;;;;;11.48;100.00;99644.63;6253286;28;20060;-74
2023/11/14 12:26:16;;;;;;;13.93;2.03;;;;;;;11.44;100.00;99651.91;6243948;28;20361;-75
2023/11/14 12:29:19;;;;;;;23.02;2.45;;;;;;;11.47;100.00;99664.03;6228537;28;20057;-76
2023/11/14 12:32:20;;;;;;;26.00;2.83;;;;;;;11.74;100.00;99653.22;6228364;28;20049;-75
2023/11/14 12:35:23;;;;;;;19.42;2.72;;;;;;;11.77;100.00;99650.38;6228529;28;20046;-76
2023/11/14 12:38:32;;;;;;;19.13;2.50;;;;;;;11.74;100.00;99658.47;6228342;28;20050;-76
2023/11/14 12:41:33;;;;;;;13.70;2.13;;;;;;;11.75;100.00;99647.81;6228184;28;20046;-75
2023/11/14 12:44:35;;;;;;;9.27;2.55;;;;;;;11.90;100.00;99664.31;6228858;28;20056;-76
2023/11/14 12:47:39;;;;;;;10.10;2.15;;;;;;;12.01;100.00;99647.69;6228307;28;20431;-75
2023/11/14 12:50:43;;;;;;;13.77;2.35;;;;;;;12.03;100.00;99662.38;6227808;28;20068;-76
2023/11/14 12:53:44;;;;;;;12.27;2.13;;;;;;;12.11;100.00;99661.81;6228052;28;20434;-76
2023/11/14 12:56:48;;;;;;;13.30;2.30;;;;;;;12.07;100.00;99661.19;6227545;28;20056;-76
2023/11/14 12:59:50;;;;;;;10.30;1.70;;;;;;;12.12;100.00;99658.22;6227802;28;20050;-74
2023/11/14 13:02:51;;;;;;;15.23;2.47;;;;;;;12.13;100.00;99671.28;6230444;28;20188;-76
2023/11/14 13:05:54;;;;;;;8.38;1.73;;;;;;;12.26;100.00;99652.69;6229180;28;20056;-76
2023/11/14 13:08:58;;;;;;;10.63;2.15;;;;;;;12.22;100.00;99658.31;6245042;28;20379;-78
2023/11/14 13:11:59;;;;;;;12.18;2.60;;;;;;;12.32;100.00;99665.41;6243913;28;20073;-77
2023/11/14 13:15:01;;;;;;;18.48;2.45;;;;;;;12.27;100.00;99643.88;6247231;28;20042;-76
2023/11/14 13:18:03;;;;;;;18.20;2.50;;;;;;;12.21;100.00;99657.50;6248699;28;20339;-77
2023/11/14 13:21:06;;;;;;;13.02;1.70;;;;;;;12.13;100.00;99647.56;6252051;28;20491;-75
2023/11/14 13:24:08;;;;;;;17.15;2.72;;;;;;;12.01;100.00;99653.78;6251190;28;20042;-74
2023/11/14 13:27:09;;;;;;;16.30;2.03;;;;;;;11.93;100.00;99653.53;6232219;28;20054;-76
2023/11/14 13:30:12;;;;;;;12.95;2.00;;;;;;;11.89;100.00;99658.19;6227016;28;20456;-76
2023/11/14 13:33:14;;;;;;;14.38;2.28;;;;;;;11.76;100.00;99670.56;6226980;28;20046;-76
2023/11/14 13:36:18;;;;;;;14.77;2.78;;;;;;;11.73;100.00;99677.88;6226955;28;20100;-77
2023/11/14 13:39:20;;;;;;;12.07;2.05;;;;;;;11.65;100.00;99681.06;6227201;28;20061;-77
2023/11/14 13:42:22;;;;;;;20.50;2.28;;;;;;;11.61;100.00;99683.06;6226704;28;20054;-77
2023/11/14 13:45:23;;;;;;;9.68;2.17;;;;;;;11.62;100.00;99681.28;6227016;28;20061;-77
2023/11/14 13:48:24;;;;;;;20.17;2.75;;;;;;;11.63;100.00;99675.94;6226678;28;20054;-78
2023/11/14 13:51:29;;;;;;;14.90;2.22;;;;;;;11.61;100.00;99676.97;6240771;28;20054;-76
2023/11/14 13:54:30;;;;;;;18.55;2.42;;;;;;;11.46;100.00;99671.06;6202753;28;20057;-78
2023/11/14 13:57:32;;;;;;;19.38;2.35;;;;;;;11.43;100.00;99666.88;6202581;28;20058;-75
2023/11/14 14:00:33;;;;;;;24.52;3.85;;;;;;;11.42;100.00;99669.63;6202240;28;20051;-77